createdAt,value
2022-10-23T00:01:48.367Z,100.00
2022-10-23T00:04:25.340Z,100.00
2022-10-23T00:06:53.924Z,100.00
2022-10-23T00:09:24.968Z,100.00
2022-10-23T00:11:53.431Z,100.00
2022-10-23T00:14:24.315Z,100.00
2022-10-23T00:17:08.204Z,100.00
2022-10-23T00:19:36.562Z,100.00
2022-10-23T00:22:04.908Z,100.00
2022-10-23T00:24:33.354Z,100.00
2022-10-23T00:27:01.769Z,100.00
2022-10-23T00:29:30.408Z,100.00
2022-10-23T00:31:58.750Z,100.00
2022-10-23T00:34:27.259Z,100.00
2022-10-23T00:36:55.651Z,100.00
2022-10-23T00:39:24.126Z,100.00
2022-10-23T00:41:52.790Z,100.00
2022-10-23T00:44:21.122Z,100.00
2022-10-23T00:46:49.908Z,100.00
2022-10-23T00:49:18.421Z,100.00
2022-10-23T00:51:54.587Z,100.00
2022-10-23T00:54:27.178Z,100.00
2022-10-23T00:57:03.633Z,100.00
2022-10-23T00:59:32.450Z,100.00
2022-10-23T01:02:01.107Z,100.00
2022-10-23T01:04:32.760Z,100.00
2022-10-23T01:07:26.539Z,100.00
2022-10-23T01:10:01.275Z,100.00
2022-10-23T01:12:59.623Z,100.00
2022-10-23T01:15:59.084Z,100.00
2022-10-23T01:18:44.281Z,100.00
2022-10-23T01:22:01.971Z,100.00
2022-10-23T01:25:03.701Z,100.00
2022-10-23T01:27:37.932Z,100.00
2022-10-23T01:30:19.222Z,100.00
2022-10-23T01:32:50.479Z,100.00
2022-10-23T01:35:35.064Z,100.00
2022-10-23T01:38:13.499Z,100.00
2022-10-23T01:41:05.169Z,100.00
2022-10-23T01:43:45.756Z,100.00
2022-10-23T01:46:18.412Z,100.00
2022-10-23T01:48:53.777Z,100.00
2022-10-23T01:51:26.225Z,100.00
2022-10-23T01:54:00.024Z,100.00
2022-10-23T01:56:35.343Z,100.00
2022-10-23T01:59:07.669Z,100.00
2022-10-23T02:01:38.546Z,100.00
2022-10-23T02:04:11.081Z,100.00
2022-10-23T02:06:39.647Z,100.00
2022-10-23T02:09:08.374Z,100.00
2022-10-23T02:11:48.593Z,100.00
2022-10-23T02:15:12.287Z,100.00
2022-10-23T02:17:56.770Z,100.00
2022-10-23T02:20:42.036Z,100.00
2022-10-23T02:23:55.328Z,100.00
2022-10-23T02:26:41.402Z,100.00
2022-10-23T02:29:34.254Z,100.00
2022-10-23T02:32:02.998Z,100.00
2022-10-23T02:34:31.453Z,100.00
2022-10-23T02:36:59.836Z,100.00
2022-10-23T02:39:29.359Z,100.00
2022-10-23T02:42:22.452Z,100.00
2022-10-23T02:45:24.880Z,100.00
2022-10-23T02:47:58.564Z,100.00
2022-10-23T02:50:40.561Z,100.00
2022-10-23T02:53:27.382Z,100.00
2022-10-23T02:56:24.575Z,100.00
2022-10-23T02:59:15.616Z,100.00
2022-10-23T03:01:56.146Z,100.00
2022-10-23T03:04:27.616Z,100.00
2022-10-23T03:06:56.653Z,100.00
2022-10-23T03:09:26.621Z,100.00
2022-10-23T03:11:55.091Z,100.00
2022-10-23T03:14:26.209Z,100.00
2022-10-23T03:16:54.519Z,100.00
2022-10-23T03:19:22.860Z,100.00
2022-10-23T03:21:51.223Z,100.00
2022-10-23T03:24:19.816Z,100.00
2022-10-23T03:26:48.273Z,100.00
2022-10-23T03:29:16.731Z,100.00
2022-10-23T03:31:45.278Z,100.00
2022-10-23T03:34:15.043Z,100.00
2022-10-23T03:36:43.607Z,100.00
2022-10-23T03:39:12.041Z,100.00
2022-10-23T03:41:42.804Z,100.00
2022-10-23T03:44:11.189Z,100.00
2022-10-23T03:46:40.730Z,100.00
2022-10-23T03:49:09.106Z,100.00
2022-10-23T03:51:41.542Z,100.00
2022-10-23T03:54:10.235Z,100.00
2022-10-23T03:56:38.779Z,100.00
2022-10-23T03:59:07.260Z,100.00
2022-10-23T04:01:35.701Z,100.00
2022-10-23T04:04:04.112Z,100.00
2022-10-23T04:06:32.684Z,100.00
2022-10-23T04:09:01.242Z,100.00
2022-10-23T04:11:29.612Z,100.00
2022-10-23T04:13:58.039Z,100.00
2022-10-23T04:16:26.830Z,100.00
2022-10-23T04:18:55.193Z,100.00
2022-10-23T04:21:23.591Z,100.00
2022-10-23T04:23:52.016Z,100.00
2022-10-23T04:26:20.397Z,100.00
2022-10-23T04:28:49.063Z,100.00
2022-10-23T04:31:17.455Z,100.00
2022-10-23T04:33:45.998Z,100.00
2022-10-23T04:36:14.396Z,100.00
2022-10-23T04:38:42.789Z,100.00
2022-10-23T04:41:11.422Z,100.00
2022-10-23T04:43:39.356Z,100.00
2022-10-23T04:46:08.305Z,100.00
2022-10-23T04:48:36.680Z,100.00
2022-10-23T04:51:06.772Z,100.00
2022-10-23T04:53:35.618Z,100.00
2022-10-23T04:56:04.375Z,100.00
2022-10-23T04:58:32.931Z,100.00
2022-10-23T05:01:01.580Z,100.00
2022-10-23T05:03:30.062Z,100.00
2022-10-23T05:05:58.506Z,100.00
2022-10-23T05:08:27.071Z,100.00
2022-10-23T05:10:55.600Z,100.00
2022-10-23T05:13:23.996Z,100.00
2022-10-23T05:15:53.374Z,100.00
2022-10-23T05:18:35.261Z,100.00
2022-10-23T05:21:27.865Z,100.00
2022-10-23T05:23:57.390Z,100.00
2022-10-23T05:26:26.040Z,100.00
2022-10-23T05:28:54.405Z,100.00
2022-10-23T05:31:24.432Z,100.00
2022-10-23T05:33:54.313Z,100.00
2022-10-23T05:36:24.035Z,100.00
2022-10-23T05:38:52.744Z,100.00
2022-10-23T05:41:21.227Z,100.00
2022-10-23T05:43:49.874Z,100.00
2022-10-23T05:46:18.236Z,100.00
2022-10-23T05:48:46.672Z,100.00
2022-10-23T05:51:20.206Z,100.00
2022-10-23T05:53:52.186Z,100.00
2022-10-23T05:56:20.730Z,100.00
2022-10-23T05:58:49.290Z,100.00
2022-10-23T06:01:18.579Z,100.00
2022-10-23T06:03:47.031Z,100.00
2022-10-23T06:06:15.362Z,100.00
2022-10-23T06:08:43.734Z,100.00
2022-10-23T06:11:15.379Z,100.00
2022-10-23T06:13:48.413Z,100.00
2022-10-23T06:16:20.512Z,100.00
2022-10-23T06:18:48.898Z,100.00
2022-10-23T06:21:18.077Z,100.00
2022-10-23T06:23:47.564Z,100.00
2022-10-23T06:26:18.319Z,100.00
2022-10-23T06:28:46.608Z,100.00
2022-10-23T06:31:19.182Z,100.00
2022-10-23T06:33:48.024Z,100.00
2022-10-23T06:36:16.364Z,100.00
2022-10-23T06:38:44.366Z,100.00
2022-10-23T06:41:23.134Z,100.00
2022-10-23T06:43:53.352Z,100.00
2022-10-23T06:46:22.037Z,100.00
2022-10-23T06:48:50.482Z,100.00
2022-10-23T06:51:19.186Z,100.00
2022-10-23T06:53:48.294Z,100.00
2022-10-23T06:56:16.646Z,100.00
2022-10-23T06:58:45.169Z,100.00
2022-10-23T07:01:14.866Z,100.00
2022-10-23T07:03:43.503Z,100.00
2022-10-23T07:06:12.750Z,100.00
2022-10-23T07:08:41.573Z,100.00
2022-10-23T07:11:12.328Z,100.00
2022-10-23T07:13:42.101Z,100.00
2022-10-23T07:16:24.289Z,100.00
2022-10-23T07:18:59.386Z,100.00
2022-10-23T07:21:34.756Z,100.00
2022-10-23T07:24:03.586Z,100.00
2022-10-23T07:26:33.114Z,100.00
2022-10-23T07:29:01.803Z,100.00
2022-10-23T07:31:30.239Z,100.00
2022-10-23T07:33:58.894Z,100.00
2022-10-23T07:36:27.508Z,100.00
2022-10-23T07:38:55.847Z,100.00
2022-10-23T07:41:24.263Z,100.00
2022-10-23T07:43:52.636Z,100.00
2022-10-23T07:46:21.151Z,100.00
2022-10-23T07:48:49.491Z,100.00
2022-10-23T07:51:18.389Z,100.00
2022-10-23T07:53:46.864Z,100.00
2022-10-23T07:56:24.591Z,100.00
2022-10-23T07:58:54.062Z,100.00
2022-10-23T08:01:33.307Z,100.00
2022-10-23T08:04:02.372Z,100.00
2022-10-23T08:06:31.006Z,100.00
2022-10-23T08:09:02.245Z,100.00
2022-10-23T08:11:35.894Z,100.00
2022-10-23T08:14:06.591Z,100.00
2022-10-23T08:16:39.320Z,100.00
2022-10-23T08:19:09.090Z,100.00
2022-10-23T08:21:37.478Z,100.00
2022-10-23T08:24:05.998Z,100.00
2022-10-23T08:26:34.664Z,100.00
2022-10-23T08:29:03.032Z,100.00
2022-10-23T08:31:31.448Z,100.00
2022-10-23T08:33:59.905Z,100.00
2022-10-23T08:36:30.215Z,100.00
2022-10-23T08:38:59.347Z,100.00
2022-10-23T08:41:37.057Z,100.00
2022-10-23T08:44:51.820Z,100.00
2022-10-23T08:47:31.526Z,100.00
2022-10-23T08:50:13.979Z,100.00
2022-10-23T08:53:11.210Z,100.00
2022-10-23T08:55:48.655Z,100.00
2022-10-23T08:58:41.704Z,100.00
2022-10-23T09:01:31.831Z,100.00
2022-10-23T09:04:00.534Z,100.00
2022-10-23T09:06:40.557Z,100.00
2022-10-23T09:09:44.824Z,100.00
2022-10-23T09:12:23.789Z,100.00
2022-10-23T09:15:06.965Z,99.95
2022-10-23T09:17:42.123Z,99.24
2022-10-23T09:20:34.171Z,98.52
2022-10-23T09:23:15.956Z,97.65
2022-10-23T09:25:45.258Z,96.19
2022-10-23T09:28:33.150Z,95.45
2022-10-23T09:31:13.175Z,94.82
2022-10-23T09:33:41.661Z,94.54
2022-10-23T09:36:13.794Z,93.37
2022-10-23T09:38:52.386Z,93.10
2022-10-23T09:41:35.040Z,93.29
2022-10-23T09:44:24.193Z,93.51
2022-10-23T09:46:56.403Z,92.72
2022-10-23T09:49:31.711Z,91.83
2022-10-23T09:52:11.812Z,90.47
2022-10-23T09:54:48.564Z,90.22
2022-10-23T09:57:42.724Z,89.80
2022-10-23T10:00:20.712Z,89.52
2022-10-23T10:03:05.185Z,89.76
2022-10-23T10:05:33.670Z,89.39
2022-10-23T10:08:10.435Z,89.91
2022-10-23T10:10:46.218Z,89.10
2022-10-23T10:13:37.310Z,88.75
2022-10-23T10:16:20.761Z,88.58
2022-10-23T10:19:02.644Z,89.24
2022-10-23T10:21:45.281Z,89.29
2022-10-23T10:24:33.992Z,89.77
2022-10-23T10:27:10.968Z,88.19
2022-10-23T10:30:05.405Z,87.76
2022-10-23T10:32:58.393Z,89.08
2022-10-23T10:35:47.042Z,89.80
2022-10-23T10:38:42.468Z,90.49
2022-10-23T10:41:42.836Z,90.58
2022-10-23T10:44:15.592Z,90.68
2022-10-23T10:47:00.864Z,90.63
2022-10-23T10:49:41.091Z,87.61
2022-10-23T10:52:26.008Z,87.02
2022-10-23T10:55:28.110Z,87.33
2022-10-23T10:58:15.104Z,85.88
2022-10-23T11:00:45.980Z,86.72
2022-10-23T11:03:30.667Z,87.50
2022-10-23T11:06:02.039Z,88.20
2022-10-23T11:08:49.778Z,87.64
2022-10-23T11:11:40.633Z,85.67
2022-10-23T11:14:37.472Z,84.18
2022-10-23T11:17:16.907Z,85.24
2022-10-23T11:20:04.692Z,85.16
2022-10-23T11:22:46.731Z,84.56
2022-10-23T11:25:33.843Z,84.06
2022-10-23T11:28:42.661Z,82.67
2022-10-23T11:31:29.204Z,81.77
2022-10-23T11:34:03.650Z,81.79
2022-10-23T11:36:40.408Z,81.82
2022-10-23T11:39:30.583Z,81.33
2022-10-23T11:42:05.923Z,82.66
2022-10-23T11:44:49.186Z,81.71
2022-10-23T11:47:40.360Z,80.54
2022-10-23T11:50:08.978Z,79.68
2022-10-23T11:53:09.232Z,79.46
2022-10-23T11:55:56.307Z,77.80
2022-10-23T11:58:31.998Z,77.71
2022-10-23T12:01:19.533Z,77.91
2022-10-23T12:04:07.227Z,76.90
2022-10-23T12:06:43.521Z,76.79
2022-10-23T12:09:25.347Z,76.33
2022-10-23T12:12:09.785Z,75.23
2022-10-23T12:14:48.539Z,74.77
2022-10-23T12:17:25.596Z,73.04
2022-10-23T12:20:28.537Z,72.17
2022-10-23T12:23:27.461Z,72.45
2022-10-23T12:26:14.787Z,72.94
2022-10-23T12:29:10.863Z,73.52
2022-10-23T12:32:07.405Z,74.04
2022-10-23T12:35:00.595Z,74.27
2022-10-23T12:37:51.620Z,72.91
2022-10-23T12:40:20.041Z,73.89
2022-10-23T12:42:57.925Z,74.64
2022-10-23T12:45:40.685Z,73.61
2022-10-23T12:48:16.649Z,73.13
2022-10-23T12:50:52.188Z,74.55
2022-10-23T12:53:23.371Z,74.93
2022-10-23T12:56:02.111Z,74.99
2022-10-23T12:58:34.844Z,74.59
2022-10-23T13:01:06.661Z,74.90
2022-10-23T13:03:36.281Z,75.17
2022-10-23T13:06:05.017Z,75.20
2022-10-23T13:08:44.743Z,74.38
2022-10-23T13:11:19.820Z,74.89
2022-10-23T13:13:49.396Z,74.68
2022-10-23T13:16:28.238Z,75.27
2022-10-23T13:18:56.573Z,75.95
2022-10-23T13:21:28.633Z,76.08
2022-10-23T13:23:57.425Z,76.31
2022-10-23T13:26:42.958Z,76.73
2022-10-23T13:29:27.635Z,77.22
2022-10-23T13:31:55.969Z,77.43
2022-10-23T13:34:30.542Z,77.28
2022-10-23T13:37:27.457Z,76.84
2022-10-23T13:40:05.274Z,75.57
2022-10-23T13:42:33.728Z,75.97
2022-10-23T13:45:02.124Z,74.00
2022-10-23T13:47:30.464Z,72.78
2022-10-23T13:49:58.782Z,71.41
2022-10-23T13:52:27.156Z,71.32
2022-10-23T13:54:55.495Z,71.22
2022-10-23T13:57:23.855Z,71.13
2022-10-23T13:59:52.173Z,71.39
2022-10-23T14:02:25.041Z,72.93
2022-10-23T14:04:53.607Z,74.00
2022-10-23T14:07:22.092Z,75.27
2022-10-23T14:09:50.785Z,75.92
2022-10-23T14:12:19.261Z,76.61
2022-10-23T14:14:52.847Z,77.18
2022-10-23T14:17:21.888Z,76.32
2022-10-23T14:19:51.063Z,74.58
2022-10-23T14:22:19.483Z,73.93
2022-10-23T14:24:47.823Z,73.99
2022-10-23T14:27:16.354Z,73.96
2022-10-23T14:29:44.758Z,73.37
2022-10-23T14:32:13.225Z,73.92
2022-10-23T14:34:46.185Z,74.39
2022-10-23T14:37:14.569Z,74.69
2022-10-23T14:39:47.518Z,75.16
2022-10-23T14:42:18.034Z,75.72
2022-10-23T14:44:46.166Z,76.07
2022-10-23T14:47:14.561Z,76.35
2022-10-23T14:49:42.949Z,76.58
2022-10-23T14:52:11.388Z,77.15
2022-10-23T14:54:39.725Z,77.21
2022-10-23T14:57:08.227Z,77.72
2022-10-23T14:59:36.545Z,77.76
2022-10-23T15:02:04.882Z,78.50
2022-10-23T15:04:33.314Z,78.66
2022-10-23T15:07:01.699Z,79.28
2022-10-23T15:09:32.541Z,79.13
2022-10-23T15:12:00.831Z,79.64
2022-10-23T15:14:29.217Z,79.63
2022-10-23T15:16:57.695Z,79.37
2022-10-23T15:19:26.528Z,79.20
2022-10-23T15:21:54.905Z,79.30
2022-10-23T15:24:23.567Z,80.15
2022-10-23T15:26:52.166Z,81.36
2022-10-23T15:29:21.448Z,82.10
2022-10-23T15:32:04.297Z,82.47
2022-10-23T15:34:32.702Z,83.64
2022-10-23T15:37:01.420Z,82.52
2022-10-23T15:39:35.501Z,82.24
2022-10-23T15:42:06.701Z,82.98
2022-10-23T15:44:35.349Z,83.76
2022-10-23T15:47:03.764Z,84.28
2022-10-23T15:49:32.704Z,83.16
2022-10-23T15:52:02.341Z,82.97
2022-10-23T15:54:32.809Z,83.27
2022-10-23T15:57:05.260Z,83.15
2022-10-23T15:59:34.917Z,82.81
2022-10-23T16:02:03.354Z,83.08
2022-10-23T16:04:31.926Z,83.00
2022-10-23T16:07:00.244Z,82.78
2022-10-23T16:09:28.610Z,82.13
2022-10-23T16:11:56.956Z,82.35
2022-10-23T16:14:25.294Z,82.06
2022-10-23T16:16:53.718Z,82.23
2022-10-23T16:19:22.218Z,81.79
2022-10-23T16:21:50.568Z,81.79
2022-10-23T16:24:18.853Z,81.74
2022-10-23T16:26:51.797Z,81.49
2022-10-23T16:29:20.688Z,81.68
2022-10-23T16:31:49.315Z,81.81
2022-10-23T16:34:17.754Z,81.68
2022-10-23T16:36:46.341Z,81.84
2022-10-23T16:39:16.985Z,81.96
2022-10-23T16:41:45.571Z,81.95
2022-10-23T16:44:14.016Z,81.86
2022-10-23T16:46:42.523Z,82.09
2022-10-23T16:49:17.549Z,81.60
2022-10-23T16:51:47.969Z,82.09
2022-10-23T16:54:17.589Z,82.05
2022-10-23T16:56:46.009Z,82.51
2022-10-23T16:59:14.300Z,82.69
2022-10-23T17:01:42.944Z,82.91
2022-10-23T17:04:11.279Z,82.60
2022-10-23T17:06:39.919Z,82.64
2022-10-23T17:09:08.285Z,82.62
2022-10-23T17:11:39.296Z,82.87
2022-10-23T17:14:17.453Z,82.18
2022-10-23T17:16:47.194Z,81.48
2022-10-23T17:19:33.094Z,81.35
2022-10-23T17:22:10.574Z,81.44
2022-10-23T17:24:46.182Z,81.54
2022-10-23T17:27:17.274Z,82.07
2022-10-23T17:29:45.712Z,82.09
2022-10-23T17:32:14.300Z,82.29
2022-10-23T17:34:42.681Z,82.60
2022-10-23T17:37:13.283Z,82.37
2022-10-23T17:39:42.533Z,82.55
2022-10-23T17:42:11.434Z,82.56
2022-10-23T17:44:41.163Z,82.63
2022-10-23T17:47:09.470Z,82.59
2022-10-23T17:49:42.831Z,82.36
2022-10-23T17:52:15.091Z,82.76
2022-10-23T17:54:43.513Z,82.59
2022-10-23T17:57:11.845Z,82.92
2022-10-23T17:59:40.390Z,83.65
2022-10-23T18:02:08.972Z,83.76
2022-10-23T18:04:37.390Z,84.74
2022-10-23T18:07:05.764Z,85.92
2022-10-23T18:09:34.261Z,86.13
2022-10-23T18:12:02.774Z,86.72
2022-10-23T18:14:37.380Z,86.98
2022-10-23T18:17:06.092Z,87.23
2022-10-23T18:19:34.438Z,87.75
2022-10-23T18:22:05.018Z,88.13
2022-10-23T18:24:33.619Z,88.13
2022-10-23T18:27:02.198Z,86.64
2022-10-23T18:29:30.517Z,86.48
2022-10-23T18:31:59.033Z,84.82
2022-10-23T18:34:27.482Z,84.42
2022-10-23T18:36:56.569Z,84.08
2022-10-23T18:39:27.241Z,82.17
2022-10-23T18:41:58.957Z,81.52
2022-10-23T18:44:29.475Z,80.14
2022-10-23T18:47:00.387Z,79.28
2022-10-23T18:49:29.275Z,78.56
2022-10-23T18:51:58.858Z,78.18
2022-10-23T18:54:27.400Z,78.57
2022-10-23T18:56:55.775Z,78.22
2022-10-23T18:59:26.639Z,78.07
2022-10-23T19:01:55.466Z,77.52
2022-10-23T19:04:24.154Z,78.65
2022-10-23T19:06:53.316Z,78.79
2022-10-23T19:09:22.173Z,77.89
2022-10-23T19:11:50.697Z,78.78
2022-10-23T19:14:19.157Z,78.66
2022-10-23T19:17:06.569Z,78.54
2022-10-23T19:19:48.415Z,78.65
2022-10-23T19:22:18.449Z,78.25
2022-10-23T19:24:57.978Z,77.92
2022-10-23T19:27:31.189Z,78.35
2022-10-23T19:30:03.410Z,76.32
2022-10-23T19:32:31.864Z,75.78
2022-10-23T19:35:01.492Z,77.43
2022-10-23T19:37:29.807Z,77.71
2022-10-23T19:39:58.458Z,77.35
2022-10-23T19:42:26.908Z,77.14
2022-10-23T19:44:55.422Z,76.87
2022-10-23T19:47:23.751Z,77.83
2022-10-23T19:49:52.885Z,77.73
2022-10-23T19:52:22.307Z,75.39
2022-10-23T19:54:51.001Z,74.68
2022-10-23T19:57:26.145Z,74.27
2022-10-23T19:59:54.472Z,74.56
2022-10-23T20:02:24.643Z,75.51
2022-10-23T20:04:52.971Z,72.52
2022-10-23T20:07:21.294Z,73.38
2022-10-23T20:09:49.928Z,74.37
2022-10-23T20:12:18.251Z,74.00
2022-10-23T20:14:46.784Z,75.28
2022-10-23T20:17:17.346Z,75.53
2022-10-23T20:19:47.933Z,76.55
2022-10-23T20:22:17.258Z,76.97
2022-10-23T20:25:10.159Z,77.12
2022-10-23T20:27:38.514Z,77.78
2022-10-23T20:30:07.175Z,78.78
2022-10-23T20:32:37.122Z,80.24
2022-10-23T20:35:06.733Z,82.54
2022-10-23T20:37:35.215Z,84.69
2022-10-23T20:40:04.064Z,86.32
2022-10-23T20:42:32.432Z,88.50
2022-10-23T20:45:01.378Z,89.83
2022-10-23T20:47:29.746Z,92.31
2022-10-23T20:49:58.274Z,92.81
2022-10-23T20:52:29.410Z,94.24
2022-10-23T20:54:58.074Z,95.01
2022-10-23T20:57:26.625Z,95.46
2022-10-23T20:59:55.036Z,95.96
2022-10-23T21:02:23.536Z,97.46
2022-10-23T21:04:51.994Z,99.00
2022-10-23T21:07:20.947Z,100.00
2022-10-23T21:09:49.225Z,100.00
2022-10-23T21:12:17.643Z,100.00
2022-10-23T21:14:45.940Z,100.00
2022-10-23T21:17:17.226Z,100.00
2022-10-23T21:19:45.692Z,100.00
2022-10-23T21:22:14.021Z,100.00
2022-10-23T21:24:42.304Z,100.00
2022-10-23T21:27:10.624Z,100.00
2022-10-23T21:29:38.946Z,100.00
2022-10-23T21:32:07.326Z,100.00
2022-10-23T21:34:35.591Z,100.00
2022-10-23T21:37:13.098Z,100.00
2022-10-23T21:39:46.114Z,100.00
2022-10-23T21:42:15.923Z,100.00
2022-10-23T21:44:44.399Z,100.00
2022-10-23T21:47:12.890Z,100.00
2022-10-23T21:49:41.306Z,100.00
2022-10-23T21:52:09.860Z,100.00
2022-10-23T21:54:38.230Z,100.00
2022-10-23T21:57:06.769Z,100.00
2022-10-23T21:59:36.273Z,100.00
2022-10-23T22:02:04.960Z,100.00
2022-10-23T22:04:33.595Z,100.00
2022-10-23T22:07:02.827Z,100.00
2022-10-23T22:09:31.788Z,100.00
2022-10-23T22:12:01.364Z,100.00
2022-10-23T22:14:29.803Z,100.00
2022-10-23T22:16:58.201Z,100.00
2022-10-23T22:19:26.789Z,100.00
2022-10-23T22:21:55.252Z,100.00
2022-10-23T22:24:23.593Z,100.00
2022-10-23T22:26:56.371Z,100.00
2022-10-23T22:29:29.342Z,100.00
2022-10-23T22:31:59.265Z,100.00
2022-10-23T22:37:19.155Z,100.00
2022-10-23T22:39:47.487Z,100.00
2022-10-23T22:42:15.805Z,100.00
2022-10-23T22:44:44.236Z,100.00
2022-10-23T22:47:12.569Z,100.00
2022-10-23T22:49:41.008Z,100.00
2022-10-23T22:52:09.398Z,100.00
2022-10-23T22:54:37.871Z,100.00
2022-10-23T22:57:06.332Z,100.00
2022-10-23T22:59:34.877Z,100.00
2022-10-23T23:02:03.261Z,100.00
2022-10-23T23:04:39.526Z,100.00
2022-10-23T23:07:13.341Z,100.00
2022-10-23T23:09:44.242Z,100.00
2022-10-23T23:12:14.500Z,100.00
2022-10-23T23:14:43.511Z,100.00
2022-10-23T23:17:12.592Z,100.00
2022-10-23T23:19:41.315Z,100.00
2022-10-23T23:22:09.882Z,100.00
2022-10-23T23:24:38.351Z,100.00
2022-10-23T23:27:06.647Z,100.00
2022-10-23T23:29:35.048Z,100.00
2022-10-23T23:32:06.155Z,100.00
2022-10-23T23:34:34.758Z,100.00
2022-10-23T23:37:03.070Z,100.00
2022-10-23T23:39:31.464Z,100.00
2022-10-23T23:41:59.785Z,100.00
2022-10-23T23:44:28.140Z,100.00
2022-10-23T23:46:56.926Z,100.00
2022-10-23T23:49:25.600Z,100.00
2022-10-23T23:51:54.264Z,100.00
2022-10-23T23:54:22.568Z,100.00
2022-10-23T23:56:50.879Z,100.00
2022-10-23T23:59:19.270Z,100.00
